Mason Cove, Virginia
Current Conditions -  °F | °C
As of 3:54 PM on Friday 31 Oct 2014 (Local Time) from KROA Reporting Station
Overcast Overcast  
Wind Chill: 54°   Ceiling: 5500
Heat Index: 54°   Visibility: 10mi
Dew Point: 36°   Wind: 9mph
Humidity: 51%   Direction: 110°ESE
Pressure: 29.83"   Gusts: NA
Location:  37.2956°N, 80.1166°W
Report Text: KROA 311954Z 11008KT 10SM BKN055 OVC120 12/02 A2983 RMK AO2 SLP103 T01220022
Loading
Personal Weather Stations






























Interactive Weather Map
Tropical Storm Tracking
New forecast layout! Learn more

10-Day Weather Forecast

Advertisements
Track Severe Weather on mobile